Time;durP1;ratioP1;P1;durP2;ratioP2;P2;SDS_P1;SDS_P2;PMS_P1;PMS_P2;Temp;Humidity;BMP_temperature;BMP_pressure;BME280_temperature;BME280_humidity;BME280_pressure;Samples;Min_cycle;Max_cycle;Signal;HPM_P1;HPM_P2
2023/06/08 00:00:06;;;;;;;3.55;1.88;;;;;;;10.91;64.71;100785.19;5093460;28;20093;-49
2023/06/08 00:02:35;;;;;;;3.85;1.90;;;;;;;10.92;64.07;100777.41;5099497;28;20051;-50
2023/06/08 00:05:03;;;;;;;3.85;1.95;;;;;;;10.94;64.03;100780.00;5095540;28;20066;-50
2023/06/08 00:07:30;;;;;;;4.82;1.80;;;;;;;10.94;64.55;100780.00;5101196;28;20057;-53
2023/06/08 00:09:58;;;;;;;5.97;2.78;;;;;;;10.98;65.03;100775.72;5094946;28;20047;-50
2023/06/08 00:12:25;;;;;;;5.00;2.15;;;;;;;11.00;64.54;100780.06;5096892;28;20056;-52
2023/06/08 00:14:51;;;;;;;4.75;1.67;;;;;;;10.98;65.15;100768.81;5094373;28;21249;-49
2023/06/08 00:17:18;;;;;;;4.32;1.73;;;;;;;11.01;64.44;100776.59;5095184;28;20050;-50
2023/06/08 00:19:45;;;;;;;5.82;1.77;;;;;;;11.01;65.48;100775.75;5095322;28;20051;-55
2023/06/08 00:22:13;;;;;;;3.75;1.48;;;;;;;11.07;64.42;100769.75;5093970;28;20170;-54
2023/06/08 00:24:40;;;;;;;5.13;1.77;;;;;;;11.09;64.60;100771.50;5091778;28;20100;-51
2023/06/08 00:27:08;;;;;;;4.82;1.77;;;;;;;11.13;64.74;100769.78;5095452;28;20499;-44
2023/06/08 00:29:35;;;;;;;4.68;1.80;;;;;;;11.13;64.20;100775.84;5076971;28;20052;-45
2023/06/08 00:32:02;;;;;;;4.28;1.98;;;;;;;11.15;65.17;100770.66;5095035;28;20047;-48
2023/06/08 00:34:29;;;;;;;3.83;1.40;;;;;;;11.18;65.02;100768.09;5095242;28;20050;-51
2023/06/08 00:36:56;;;;;;;3.63;2.00;;;;;;;11.20;64.67;100763.78;5097855;28;20044;-49
2023/06/08 00:39:23;;;;;;;5.97;1.73;;;;;;;11.23;64.75;100763.81;5096585;28;20050;-45
2023/06/08 00:41:50;;;;;;;2.53;1.30;;;;;;;11.24;64.73;100767.25;5095774;28;20059;-47
2023/06/08 00:44:17;;;;;;;5.75;1.95;;;;;;;11.26;64.14;100761.22;5093123;28;20131;-46
2023/06/08 00:46:44;;;;;;;5.45;1.55;;;;;;;11.25;65.18;100763.81;5094019;28;20040;-51
2023/06/08 00:49:15;;;;;;;5.00;2.03;;;;;;;11.25;64.30;100754.28;5095106;28;20207;-43
2023/06/08 00:51:43;;;;;;;4.15;1.88;;;;;;;11.25;64.19;100756.88;5099527;28;20044;-45
2023/06/08 00:54:14;;;;;;;3.83;1.98;;;;;;;11.26;64.10;100750.84;5104563;28;20070;-51
2023/06/08 00:56:48;;;;;;;5.10;2.00;;;;;;;11.25;64.62;100756.88;5105269;28;20039;-49
2023/06/08 00:59:16;;;;;;;3.38;1.40;;;;;;;11.25;64.40;100756.88;5084022;28;20051;-51
2023/06/08 01:01:44;;;;;;;3.33;2.90;;;;;;;11.27;64.64;100752.59;5102998;28;20440;-53
2023/06/08 01:04:14;;;;;;;4.22;1.92;;;;;;;11.26;64.32;100750.84;5097249;28;20086;-51
2023/06/08 01:06:53;;;;;;;4.93;1.55;;;;;;;11.23;65.62;100752.53;5093136;28;20064;-49
2023/06/08 01:09:34;;;;;;;3.65;2.22;;;;;;;11.19;65.46;100757.72;5095792;28;20058;-50
2023/06/08 01:17:40;;;;;;;6.60;4.07;;;;;;;11.22;64.33;100751.69;5086141;27;20388;-56
2023/06/08 01:25:41;;;;;;;3.28;1.77;;;;;;;11.22;64.84;100754.28;5055920;27;20404;-48
2023/06/08 01:28:15;;;;;;;4.00;1.80;;;;;;;11.26;64.47;100756.03;5034873;28;20056;-49
2023/06/08 01:30:45;;;;;;;4.50;1.95;;;;;;;11.27;65.20;100757.78;5033130;28;20068;-50
2023/06/08 01:33:16;;;;;;;4.20;2.47;;;;;;;11.26;64.85;100753.44;5031305;28;20041;-46
2023/06/08 01:35:46;;;;;;;3.67;1.80;;;;;;;11.28;65.39;100754.31;5051057;28;20135;-51
2023/06/08 01:38:23;;;;;;;4.22;2.58;;;;;;;11.29;65.44;100761.22;5034280;28;21762;-47
2023/06/08 01:40:56;;;;;;;4.70;1.73;;;;;;;11.23;64.72;100756.03;5035421;28;20076;-51
2023/06/08 01:43:25;;;;;;;3.58;1.60;;;;;;;11.23;65.55;100758.63;5032007;28;20115;-48
2023/06/08 01:45:57;;;;;;;7.55;2.00;;;;;;;11.22;65.60;100753.41;5035876;28;20044;-45
2023/06/08 01:48:26;;;;;;;4.50;2.20;;;;;;;11.22;64.68;100749.09;5048990;28;20052;-50
2023/06/08 01:50:53;;;;;;;4.32;1.77;;;;;;;11.23;64.80;100756.03;5051798;28;20431;-49
2023/06/08 01:53:19;;;;;;;3.95;1.85;;;;;;;11.23;65.18;100748.25;5070670;28;20055;-44
2023/06/08 01:55:50;;;;;;;2.97;1.92;;;;;;;11.26;64.65;100756.03;5072681;28;20044;-50
2023/06/08 01:58:16;;;;;;;4.93;2.40;;;;;;;11.24;65.49;100757.75;5072257;28;20052;-54
2023/06/08 02:00:43;;;;;;;3.72;2.20;;;;;;;11.26;64.61;100752.56;5073052;28;20055;-55
2023/06/08 02:03:10;;;;;;;2.92;1.80;;;;;;;11.24;64.67;100755.16;5074812;28;20056;-48
2023/06/08 02:05:37;;;;;;;6.70;2.38;;;;;;;11.27;64.56;100756.91;5084506;28;20135;-46
2023/06/08 02:08:04;;;;;;;7.28;2.13;;;;;;;11.25;64.93;100754.28;5071972;28;20106;-45
2023/06/08 02:10:31;;;;;;;7.75;2.13;;;;;;;11.27;65.33;100756.91;5065018;28;20053;-50
2023/06/08 02:12:58;;;;;;;5.38;1.83;;;;;;;11.26;65.09;100753.44;5072702;28;20058;-51
2023/06/08 02:15:25;;;;;;;3.88;2.08;;;;;;;11.28;64.54;100754.31;5069469;28;20337;-53
2023/06/08 02:17:52;;;;;;;3.80;2.38;;;;;;;11.28;64.41;100750.88;5071201;28;20059;-47
2023/06/08 02:20:18;;;;;;;3.78;2.25;;;;;;;11.29;65.54;100750.84;5070823;28;20059;-51
2023/06/08 02:22:45;;;;;;;4.30;2.00;;;;;;;11.29;64.06;100740.47;5072082;28;20452;-55
2023/06/08 02:25:12;;;;;;;4.15;1.95;;;;;;;11.30;65.26;100742.22;5075564;28;20055;-47
2023/06/08 02:27:42;;;;;;;4.72;2.28;;;;;;;11.28;65.19;100749.13;5076190;28;20123;-50
2023/06/08 02:30:11;;;;;;;6.03;2.08;;;;;;;11.30;65.54;100752.59;5071954;28;20055;-48
2023/06/08 02:32:41;;;;;;;6.68;2.35;;;;;;;11.30;65.15;100757.78;5070340;28;20040;-50
2023/06/08 02:35:09;;;;;;;5.72;1.88;;;;;;;11.31;65.61;100764.72;5066111;28;20077;-49
2023/06/08 02:37:35;;;;;;;3.08;1.80;;;;;;;11.34;65.72;100757.81;5058055;28;20048;-51
2023/06/08 02:40:04;;;;;;;4.88;2.15;;;;;;;11.34;64.95;100757.81;5057044;28;20045;-47
2023/06/08 02:42:32;;;;;;;5.35;3.05;;;;;;;11.35;65.78;100764.72;5057712;28;20131;-48
2023/06/08 02:44:58;;;;;;;3.85;2.03;;;;;;;11.35;65.68;100762.13;5060546;28;20052;-46
2023/06/08 02:47:25;;;;;;;3.58;1.95;;;;;;;11.35;65.24;100762.13;5060625;28;20068;-52
2023/06/08 02:49:52;;;;;;;5.32;2.17;;;;;;;11.34;64.95;100760.41;5059845;28;20044;-50
2023/06/08 02:52:19;;;;;;;5.65;2.75;;;;;;;11.35;65.62;100754.34;5064363;28;20491;-52
2023/06/08 02:54:45;;;;;;;4.90;2.40;;;;;;;11.35;64.46;100755.19;5065178;28;20886;-50
2023/06/08 02:57:12;;;;;;;4.43;2.17;;;;;;;11.34;64.81;100747.44;5064228;28;20093;-53
2023/06/08 02:59:40;;;;;;;6.38;2.22;;;;;;;11.34;64.88;100747.44;5063570;28;20052;-51
2023/06/08 03:02:08;;;;;;;5.13;2.53;;;;;;;11.36;65.74;100745.72;5060173;28;20048;-45
2023/06/08 03:04:35;;;;;;;3.75;1.85;;;;;;;11.32;65.57;100740.50;5055518;28;20052;-52
2023/06/08 03:07:01;;;;;;;4.50;2.30;;;;;;;11.30;65.04;100742.22;5060318;28;20044;-49
2023/06/08 03:09:28;;;;;;;5.88;2.42;;;;;;;11.33;64.92;100741.38;5056563;28;20071;-49
2023/06/08 03:11:56;;;;;;;5.55;2.08;;;;;;;11.34;65.50;100747.44;5061339;28;20594;-51
2023/06/08 03:14:28;;;;;;;4.72;2.35;;;;;;;11.32;65.47;100737.91;5062507;28;20032;-50
2023/06/08 03:16:57;;;;;;;4.63;2.40;;;;;;;11.34;65.41;100739.66;5062138;28;20044;-48
2023/06/08 03:19:25;;;;;;;5.65;2.45;;;;;;;11.30;65.20;100731.88;5065021;28;20105;-46
2023/06/08 03:21:53;;;;;;;5.47;2.75;;;;;;;11.31;64.95;100733.59;5061503;28;20082;-49
2023/06/08 03:24:20;;;;;;;3.80;2.03;;;;;;;11.32;65.46;100730.13;5065754;28;20044;-45
2023/06/08 03:26:47;;;;;;;3.83;2.28;;;;;;;11.31;65.57;100728.41;5059495;28;20068;-52
2023/06/08 03:29:14;;;;;;;2.72;1.58;;;;;;;11.27;66.37;100721.47;5057755;28;20048;-52
2023/06/08 03:31:42;;;;;;;4.97;2.00;;;;;;;11.30;65.96;100731.88;5062030;28;20048;-47
2023/06/08 03:34:08;;;;;;;6.95;1.70;;;;;;;11.26;66.37;100726.63;5067318;28;20067;-48
2023/06/08 03:36:35;;;;;;;6.13;1.77;;;;;;;11.27;65.63;100724.06;5062532;28;20400;-49
2023/06/08 03:39:02;;;;;;;4.13;2.25;;;;;;;11.29;65.15;100724.06;5056684;28;20875;-49
2023/06/08 03:41:29;;;;;;;5.35;2.75;;;;;;;11.26;65.22;100724.94;5063184;28;20052;-48
2023/06/08 03:43:56;;;;;;;5.80;2.67;;;;;;;11.28;65.08;100718.00;5055975;28;20416;-47
2023/06/08 03:46:24;;;;;;;4.00;2.15;;;;;;;11.25;65.38;100722.31;5058051;28;20045;-51
2023/06/08 03:48:51;;;;;;;6.05;2.08;;;;;;;11.25;65.20;100725.75;5059829;28;20045;-50
2023/06/08 03:51:21;;;;;;;4.47;2.38;;;;;;;11.25;65.06;100719.72;5058510;28;20048;-56
2023/06/08 03:53:50;;;;;;;6.70;2.28;;;;;;;11.23;65.52;100718.84;5060310;28;20048;-50
2023/06/08 03:56:17;;;;;;;4.43;2.05;;;;;;;11.23;66.22;100724.03;5061608;28;20132;-46
2023/06/08 03:58:44;;;;;;;3.47;1.70;;;;;;;11.22;66.32;100723.19;5057956;28;20636;-49
2023/06/08 04:01:12;;;;;;;4.72;1.95;;;;;;;11.22;65.84;100718.00;5061011;28;20368;-55
2023/06/08 04:03:41;;;;;;;8.75;2.78;;;;;;;11.24;65.47;100713.66;5061098;28;20071;-46
2023/06/08 04:06:08;;;;;;;8.93;2.75;;;;;;;11.25;65.26;100715.38;5058547;28;20126;-51
2023/06/08 04:08:40;;;;;;;4.35;2.55;;;;;;;11.24;65.49;100713.66;5060379;28;20095;-46
2023/06/08 04:11:08;;;;;;;4.68;2.47;;;;;;;11.23;66.30;100719.72;5061888;28;20090;-45
2023/06/08 04:13:36;;;;;;;5.68;2.78;;;;;;;11.26;65.36;100713.69;5058900;28;20056;-52
2023/06/08 04:16:08;;;;;;;4.25;2.17;;;;;;;11.26;65.38;100714.56;5056081;28;20047;-50
2023/06/08 04:18:36;;;;;;;5.22;2.78;;;;;;;11.25;66.28;100712.78;5061122;28;20543;-53
2023/06/08 04:21:05;;;;;;;5.28;3.03;;;;;;;11.26;65.39;100713.69;5057431;28;20044;-47
2023/06/08 04:23:33;;;;;;;5.15;2.33;;;;;;;11.29;65.45;100713.69;5055559;28;20056;-53
2023/06/08 04:26:02;;;;;;;8.60;2.83;;;;;;;11.30;65.41;100705.94;5057130;28;20052;-50
2023/06/08 04:28:29;;;;;;;4.22;2.38;;;;;;;11.31;66.11;100710.25;5046796;28;20049;-47
2023/06/08 04:30:58;;;;;;;6.03;3.20;;;;;;;11.32;65.75;100714.56;5055295;28;20129;-51
2023/06/08 04:33:27;;;;;;;6.30;2.50;;;;;;;11.35;65.24;100712.84;5055450;28;20056;-47
2023/06/08 04:35:54;;;;;;;6.38;2.55;;;;;;;11.34;65.76;100708.53;5056611;28;20480;-51
2023/06/08 04:38:22;;;;;;;4.43;2.38;;;;;;;11.34;65.34;100701.59;5056597;28;20123;-51
2023/06/08 04:40:53;;;;;;;5.15;2.08;;;;;;;11.37;65.35;100700.75;5051735;28;20135;-50
2023/06/08 04:43:21;;;;;;;5.28;2.65;;;;;;;11.36;65.17;100699.03;5071081;28;20048;-47
2023/06/08 04:45:55;;;;;;;6.47;2.65;;;;;;;11.38;66.01;100697.31;5053545;28;20106;-51
2023/06/08 04:48:25;;;;;;;6.53;2.83;;;;;;;11.39;65.47;100704.22;5058442;28;20055;-53
2023/06/08 04:50:53;;;;;;;4.28;1.95;;;;;;;11.36;65.52;100699.03;5059059;28;20143;-49
2023/06/08 04:53:21;;;;;;;8.25;2.75;;;;;;;11.42;65.49;100712.03;5060716;28;20051;-46
2023/06/08 04:55:48;;;;;;;6.07;2.33;;;;;;;11.43;65.43;100705.97;5061662;28;20040;-51
2023/06/08 04:58:15;;;;;;;6.10;2.42;;;;;;;11.41;66.22;100700.78;5059421;28;20137;-46
2023/06/08 05:00:42;;;;;;;6.43;2.28;;;;;;;11.41;65.69;100700.78;5054222;28;20139;-48
2023/06/08 05:03:09;;;;;;;5.57;2.28;;;;;;;11.43;65.51;100701.66;5058267;28;20059;-50
2023/06/08 05:05:36;;;;;;;5.22;2.47;;;;;;;11.44;65.34;100698.22;5053291;28;20144;-50
2023/06/08 05:08:05;;;;;;;5.07;2.75;;;;;;;11.47;66.17;100699.06;5061299;28;20048;-47
2023/06/08 05:10:31;;;;;;;7.30;2.28;;;;;;;11.44;66.54;100708.59;5057483;28;20047;-51
2023/06/08 05:12:58;;;;;;;5.57;2.38;;;;;;;11.44;65.91;100712.88;5062011;28;20075;-43
2023/06/08 05:15:25;;;;;;;5.38;2.20;;;;;;;11.44;65.60;100699.91;5057443;28;20087;-52
2023/06/08 05:17:52;;;;;;;6.03;2.88;;;;;;;11.48;65.98;100698.22;5051188;28;20811;-52
2023/06/08 05:20:22;;;;;;;4.40;2.42;;;;;;;11.50;66.75;100702.56;5054952;28;20570;-45
2023/06/08 05:22:50;;;;;;;9.25;3.00;;;;;;;11.54;65.70;100704.28;5056800;28;20049;-47
2023/06/08 05:25:17;;;;;;;5.00;2.60;;;;;;;11.54;66.22;100699.09;5054685;28;20044;-48
2023/06/08 05:27:44;;;;;;;7.95;2.72;;;;;;;11.55;66.06;100692.19;5054013;28;20557;-51
2023/06/08 05:30:11;;;;;;;6.70;2.55;;;;;;;11.57;66.57;100699.13;5059401;28;20053;-52
2023/06/08 05:32:38;;;;;;;6.18;2.92;;;;;;;11.60;66.48;100699.97;5056485;28;20068;-47
2023/06/08 05:35:05;;;;;;;4.32;2.95;;;;;;;11.62;65.97;100695.69;5073419;28;20455;-50
2023/06/08 05:37:32;;;;;;;5.18;2.85;;;;;;;11.62;65.66;100693.09;5057545;28;20067;-48
2023/06/08 05:39:59;;;;;;;4.40;2.17;;;;;;;11.57;66.01;100693.94;5058405;28;20101;-53
2023/06/08 05:42:26;;;;;;;6.20;3.20;;;;;;;11.62;64.92;100696.53;5056519;28;20404;-45
2023/06/08 05:44:53;;;;;;;8.48;2.30;;;;;;;11.67;64.87;100693.94;5060552;28;20609;-51
2023/06/08 05:47:20;;;;;;;5.88;2.20;;;;;;;11.64;65.35;100692.22;5058040;28;20040;-50
2023/06/08 05:49:47;;;;;;;4.38;2.35;;;;;;;11.64;65.25;100684.44;5055508;28;20048;-50
2023/06/08 05:52:13;;;;;;;6.03;2.80;;;;;;;11.69;65.15;100692.25;5061666;28;20483;-47
2023/06/08 05:54:40;;;;;;;5.10;2.38;;;;;;;11.71;66.01;100690.50;5061083;28;20131;-49
2023/06/08 05:57:07;;;;;;;6.03;2.42;;;;;;;11.73;64.79;100691.38;5060952;28;20079;-45
2023/06/08 05:59:34;;;;;;;5.28;2.28;;;;;;;11.73;65.63;100688.78;5057355;28;20075;-51
2023/06/08 06:02:01;;;;;;;4.38;2.80;;;;;;;11.76;64.72;100691.38;5055521;28;20055;-48
2023/06/08 06:04:28;;;;;;;5.65;2.15;;;;;;;11.79;65.28;100681.00;5061252;28;20050;-47
2023/06/08 06:07:05;;;;;;;4.65;2.30;;;;;;;11.81;65.37;100681.88;5056511;28;20051;-45
2023/06/08 06:09:32;;;;;;;7.15;2.30;;;;;;;11.82;64.92;100687.94;5053252;28;20114;-46
2023/06/08 06:11:59;;;;;;;7.10;2.72;;;;;;;11.88;65.08;100687.94;5057349;28;20045;-52
2023/06/08 06:14:27;;;;;;;5.57;2.33;;;;;;;11.87;64.76;100685.34;5058079;28;20139;-48
2023/06/08 06:16:54;;;;;;;4.90;2.67;;;;;;;11.85;63.94;100689.69;5056848;28;20063;-51
2023/06/08 06:19:37;;;;;;;5.13;2.58;;;;;;;11.87;64.57;100690.53;5060551;28;20055;-54
2023/06/08 06:22:06;;;;;;;3.38;2.13;;;;;;;11.90;64.83;100690.56;5058906;28;20060;-48
2023/06/08 06:24:33;;;;;;;4.80;1.95;;;;;;;11.95;65.04;100694.91;5056635;28;20134;-51
2023/06/08 06:27:01;;;;;;;6.38;2.22;;;;;;;11.90;64.37;100686.25;5060729;28;20044;-46
2023/06/08 06:29:28;;;;;;;4.75;2.58;;;;;;;11.97;64.84;100697.50;5060757;28;20047;-49
2023/06/08 06:31:55;;;;;;;5.75;2.75;;;;;;;11.95;64.79;100689.69;5064343;28;20249;-51
2023/06/08 06:34:22;;;;;;;4.63;2.65;;;;;;;12.02;63.80;100695.75;5059757;28;20049;-49
2023/06/08 06:36:49;;;;;;;7.03;3.17;;;;;;;12.00;64.39;100692.31;5056912;28;20048;-50
2023/06/08 06:39:17;;;;;;;6.00;2.53;;;;;;;12.02;64.56;100700.97;5053923;28;20059;-49
2023/06/08 06:41:44;;;;;;;4.90;1.85;;;;;;;12.02;64.00;100693.16;5064040;28;20041;-46
2023/06/08 06:44:11;;;;;;;6.65;2.92;;;;;;;12.08;63.98;100693.22;5065291;28;20044;-51
2023/06/08 06:46:38;;;;;;;6.35;2.67;;;;;;;12.16;64.05;100687.19;5062244;28;20036;-48
2023/06/08 06:49:04;;;;;;;5.45;3.10;;;;;;;12.23;64.79;100694.09;5058604;28;20040;-45
2023/06/08 06:51:32;;;;;;;4.90;2.72;;;;;;;12.26;64.14;100683.69;5061153;28;20121;-48
2023/06/08 06:53:58;;;;;;;6.03;2.88;;;;;;;12.28;63.56;100692.38;5064916;28;20074;-47
2023/06/08 06:56:25;;;;;;;5.15;2.53;;;;;;;12.29;64.77;100685.47;5056245;28;20040;-46
2023/06/08 06:58:52;;;;;;;5.47;2.20;;;;;;;12.31;64.72;100687.19;5056655;28;20095;-51
2023/06/08 07:01:19;;;;;;;4.10;2.50;;;;;;;12.36;63.35;100694.09;5061934;28;20167;-47
2023/06/08 07:03:46;;;;;;;4.85;2.92;;;;;;;12.40;64.31;100694.09;5063542;28;20063;-48
2023/06/08 07:06:13;;;;;;;6.68;2.80;;;;;;;12.43;63.72;100701.03;5061976;28;20072;-45
2023/06/08 07:08:41;;;;;;;7.13;2.28;;;;;;;12.44;64.19;100700.16;5062851;28;20602;-49
2023/06/08 07:11:09;;;;;;;4.68;2.20;;;;;;;12.48;63.40;100699.28;5059320;28;20052;-49
2023/06/08 07:13:35;;;;;;;5.25;2.40;;;;;;;12.54;64.18;100704.50;5059755;28;20048;-50
2023/06/08 07:16:03;;;;;;;6.32;2.28;;;;;;;12.57;63.21;100699.28;5064664;28;20040;-48
2023/06/08 07:18:31;;;;;;;6.18;3.20;;;;;;;12.67;63.76;100704.50;5062759;28;20794;-50
2023/06/08 07:20:58;;;;;;;5.78;2.22;;;;;;;12.68;63.73;100706.22;5055987;28;20157;-49
2023/06/08 07:23:25;;;;;;;6.13;2.85;;;;;;;12.68;63.69;100706.22;5061557;28;20071;-48
2023/06/08 07:26:12;;;;;;;4.53;2.95;;;;;;;12.67;62.72;100700.13;5098324;28;20118;-46
2023/06/08 07:28:58;;;;;;;6.70;2.33;;;;;;;12.76;62.93;100699.28;5101053;27;20060;-52
2023/06/08 07:31:26;;;;;;;5.20;2.67;;;;;;;12.84;63.77;100702.72;5099241;27;20039;-46
2023/06/08 07:33:58;;;;;;;9.45;2.38;;;;;;;12.92;62.62;100709.66;5100619;27;20075;-52
2023/06/08 07:36:28;;;;;;;5.25;2.28;;;;;;;12.92;62.08;100699.25;5087820;28;20097;-47
2023/06/08 07:38:56;;;;;;;4.63;2.35;;;;;;;12.95;63.18;100697.53;5103260;27;20391;-46
2023/06/08 07:41:26;;;;;;;5.00;3.10;;;;;;;12.99;63.22;100695.75;5103534;27;20093;-51
2023/06/08 07:43:53;;;;;;;;;;;;;;;12.92;63.22;100704.44;5106854;27;20059;-45
2023/06/08 07:46:20;;;;;;;5.53;1.98;;;;;;;13.07;61.96;100704.41;5104099;28;19931;-42
2023/06/08 07:48:47;;;;;;;4.32;2.35;;;;;;;13.17;62.47;100694.00;5106878;27;20130;-47
2023/06/08 07:51:15;;;;;;;8.70;2.50;;;;;;;13.19;61.43;100698.31;5110626;27;20054;-52
2023/06/08 07:53:42;;;;;;;7.40;2.05;;;;;;;13.26;62.53;100696.56;5106445;27;20047;-45
2023/06/08 07:56:08;;;;;;;5.13;2.58;;;;;;;13.36;62.23;100694.78;5109859;27;20035;-53
2023/06/08 07:58:35;;;;;;;4.40;2.13;;;;;;;13.37;61.08;100697.38;5102742;27;20075;-49
2023/06/08 08:01:03;;;;;;;7.68;3.13;;;;;;;13.42;62.21;100693.91;5108039;27;20493;-45
2023/06/08 08:03:37;;;;;;;3.80;1.90;;;;;;;13.46;61.67;100703.41;5107787;27;20047;-49
2023/06/08 08:06:05;;;;;;;3.50;2.25;;;;;;;13.48;61.44;100693.88;5087381;28;20483;-46
2023/06/08 08:08:32;;;;;;;5.53;1.90;;;;;;;13.53;61.31;100702.56;5085425;28;20055;-48
2023/06/08 08:10:59;;;;;;;3.50;2.38;;;;;;;13.57;61.34;100693.84;5104835;27;20051;-53
2023/06/08 08:13:27;;;;;;;7.07;2.28;;;;;;;13.60;60.58;100698.19;5095700;28;20728;-43
2023/06/08 08:15:54;;;;;;;4.65;1.85;;;;;;;13.66;60.52;100697.28;5103314;27;20040;-54
2023/06/08 08:18:21;;;;;;;6.03;2.40;;;;;;;13.72;61.41;100698.09;5102511;27;20054;-49
2023/06/08 08:20:48;;;;;;;7.55;2.25;;;;;;;13.81;61.04;100688.53;5107653;27;20052;-50
2023/06/08 08:23:15;;;;;;;3.17;1.95;;;;;;;13.90;60.85;100698.00;5103785;27;20063;-53
2023/06/08 08:25:41;;;;;;;4.45;2.65;;;;;;;13.97;60.93;100699.72;5113419;27;20039;-43
2023/06/08 08:28:08;;;;;;;5.45;2.15;;;;;;;14.02;60.95;100695.34;5082494;28;20044;-44
2023/06/08 08:30:35;;;;;;;4.60;2.78;;;;;;;14.12;60.78;100697.00;5107468;27;20301;-49
2023/06/08 08:33:03;;;;;;;3.05;2.17;;;;;;;14.25;60.19;100699.50;5099235;27;20048;-53
2023/06/08 08:35:31;;;;;;;6.78;2.13;;;;;;;14.28;60.30;100691.69;5106744;27;20047;-47
2023/06/08 08:37:58;;;;;;;7.90;2.53;;;;;;;14.37;59.51;100690.75;5106750;27;20047;-51
2023/06/08 08:40:26;;;;;;;9.23;2.97;;;;;;;14.40;59.80;100702.00;5109549;27;20062;-50
2023/06/08 08:43:01;;;;;;;5.10;2.15;;;;;;;14.47;59.65;100701.97;5100548;28;20071;-49
2023/06/08 08:45:31;;;;;;;5.53;2.20;;;;;;;14.55;59.41;100694.94;5105626;27;20043;-52
2023/06/08 08:48:01;;;;;;;5.38;1.80;;;;;;;14.63;59.21;100698.34;5077785;28;20071;-55
2023/06/08 08:50:34;;;;;;;4.45;1.95;;;;;;;14.73;59.24;100688.69;5102395;28;20051;-50
2023/06/08 08:53:01;;;;;;;3.95;1.95;;;;;;;14.83;58.74;100688.63;5099809;27;20048;-48
2023/06/08 08:55:29;;;;;;;6.10;2.35;;;;;;;14.90;58.32;100696.38;5099808;27;20495;-44
2023/06/08 08:58:00;;;;;;;4.18;2.67;;;;;;;14.96;58.87;100684.16;5096275;28;20048;-46
2023/06/08 09:00:31;;;;;;;3.85;1.73;;;;;;;14.96;58.50;100678.94;5101532;28;20059;-47
2023/06/08 09:03:00;;;;;;;5.72;2.50;;;;;;;15.01;58.37;100679.75;5105367;27;20059;-50
2023/06/08 09:05:28;;;;;;;5.20;2.22;;;;;;;15.07;58.63;100682.28;5106411;27;20035;-49
2023/06/08 09:07:55;;;;;;;4.35;2.13;;;;;;;15.19;58.01;100670.00;5100472;28;20047;-52
2023/06/08 09:10:25;;;;;;;4.00;2.83;;;;;;;15.31;58.39;100685.50;5097355;28;20071;-52
2023/06/08 09:12:56;;;;;;;7.82;2.35;;;;;;;15.49;58.32;100673.06;5085266;28;20097;-51
2023/06/08 09:15:30;;;;;;;5.20;2.35;;;;;;;15.65;57.81;100674.63;5100798;28;20403;-51
2023/06/08 09:18:03;;;;;;;4.65;2.22;;;;;;;15.74;57.22;100678.81;5110948;27;20121;-50
2023/06/08 09:20:32;;;;;;;6.03;2.78;;;;;;;15.78;56.75;100677.06;5093966;27;20176;-47
2023/06/08 09:25:52;;;;;;;8.02;2.38;;;;;;;15.83;56.75;100677.84;5084375;27;20396;-48
2023/06/08 09:28:25;;;;;;;5.10;2.33;;;;;;;15.88;56.43;100673.41;5059165;28;20102;-54
2023/06/08 09:30:56;;;;;;;5.72;2.33;;;;;;;15.98;56.41;100675.91;5047576;28;20053;-54
2023/06/08 09:33:26;;;;;;;4.95;2.40;;;;;;;16.12;56.41;100671.34;5055377;28;20052;-48
2023/06/08 09:38:35;;;;;;;6.63;3.30;;;;;;;16.65;55.91;100665.22;5054429;28;20395;-52
2023/06/08 09:41:22;;;;;;;4.95;2.65;;;;;;;16.84;55.82;100667.50;5008675;28;20045;-46
2023/06/08 09:43:50;;;;;;;4.28;2.63;;;;;;;16.93;54.67;100669.91;4996554;28;20707;-54
2023/06/08 09:46:45;;;;;;;5.82;3.25;;;;;;;17.03;55.68;100661.91;4995040;28;20135;-54
2023/06/08 09:49:14;;;;;;;5.57;2.72;;;;;;;17.34;55.51;100666.53;4999112;28;20074;-50
2023/06/08 09:51:48;;;;;;;5.82;3.45;;;;;;;17.62;55.84;100668.56;4993623;28;20054;-57
2023/06/08 09:54:19;;;;;;;7.18;3.60;;;;;;;17.96;55.04;100661.69;4996453;28;20486;-44
2023/06/08 09:56:48;;;;;;;5.13;3.03;;;;;;;18.22;53.32;100660.22;4990936;28;20141;-52
2023/06/08 09:59:17;;;;;;;5.57;2.55;;;;;;;18.41;53.89;100670.25;4993668;28;20042;-51
2023/06/08 10:01:52;;;;;;;5.25;2.63;;;;;;;18.50;52.79;100665.63;4996852;28;20054;-53
2023/06/08 10:04:37;;;;;;;;;;;;;;;18.42;51.66;100662.34;4995099;28;20097;-52
2023/06/08 10:07:09;;;;;;;6.75;3.08;;;;;;;18.47;52.46;100655.22;4996595;28;20274;-52
2023/06/08 10:09:41;;;;;;;5.63;2.42;;;;;;;18.48;51.52;100661.31;4997109;28;20054;-45
2023/06/08 10:12:10;;;;;;;5.20;2.72;;;;;;;18.46;51.03;100655.25;4993121;28;20065;-50
2023/06/08 10:14:39;;;;;;;6.28;4.13;;;;;;;18.56;51.44;100648.00;5001421;28;20693;-56
2023/06/08 10:17:07;;;;;;;5.00;2.15;;;;;;;18.57;51.06;100649.72;4999477;28;20057;-48
2023/06/08 10:19:36;;;;;;;6.15;2.63;;;;;;;18.60;51.44;100644.38;4995603;28;20537;-49
2023/06/08 10:22:04;;;;;;;8.98;3.08;;;;;;;18.72;51.36;100645.84;4987625;28;20050;-49
2023/06/08 10:24:34;;;;;;;5.22;2.45;;;;;;;18.81;50.65;100642.09;4995462;28;20078;-57
2023/06/08 10:27:28;;;;;;;9.48;2.45;;;;;;;18.97;51.11;100642.50;5001272;28;20057;-49
2023/06/08 10:29:58;;;;;;;5.95;2.60;;;;;;;19.19;50.72;100637.56;4997601;28;20094;-53
2023/06/08 10:32:31;;;;;;;4.75;2.08;;;;;;;19.29;49.67;100632.03;4999075;28;20275;-49
2023/06/08 10:35:03;;;;;;;4.07;2.55;;;;;;;19.37;49.94;100638.78;4998311;28;20042;-52
2023/06/08 10:37:33;;;;;;;4.90;2.55;;;;;;;19.48;50.46;100629.69;4997747;28;20125;-55
2023/06/08 10:40:08;;;;;;;6.07;3.50;;;;;;;19.61;49.57;100638.03;4999303;28;20065;-54
2023/06/08 10:42:35;;;;;;;3.65;2.15;;;;;;;19.65;49.13;100618.66;4977402;28;20092;-50
2023/06/08 10:45:04;;;;;;;5.72;2.72;;;;;;;19.65;48.88;100623.91;4989345;28;20053;-55
2023/06/08 10:47:36;;;;;;;5.28;3.22;;;;;;;19.76;49.76;100611.28;4993773;28;20383;-58
2023/06/08 10:50:08;;;;;;;3.85;2.35;;;;;;;19.90;48.95;100613.47;4984987;28;20558;-56
2023/06/08 10:52:42;;;;;;;3.88;2.38;;;;;;;20.08;49.42;100612.94;4986756;28;20104;-48
2023/06/08 10:55:12;;;;;;;5.28;2.55;;;;;;;20.18;49.35;100606.47;4981564;28;20048;-47
2023/06/08 11:02:55;;;;;;;6.80;3.20;;;;;;;20.52;47.16;100610.53;5060473;27;20411;-57
2023/06/08 11:05:23;;;;;;;5.22;2.72;;;;;;;20.45;47.50;100627.47;5016473;28;20049;-54
2023/06/08 11:07:53;;;;;;;5.60;2.65;;;;;;;20.50;47.81;100612.38;5035794;28;20103;-52
2023/06/08 11:10:20;;;;;;;7.18;3.08;;;;;;;20.60;47.77;100612.06;5032593;28;20432;-54
2023/06/08 11:12:48;;;;;;;6.60;2.90;;;;;;;20.70;48.27;100618.69;5036953;28;20053;-55
2023/06/08 11:15:17;;;;;;;6.55;3.45;;;;;;;20.79;47.46;100604.34;5030932;28;20416;-50
2023/06/08 11:17:53;;;;;;;6.45;2.28;;;;;;;20.84;47.73;100604.19;5036936;28;20404;-50
2023/06/08 11:20:27;;;;;;;4.75;3.38;;;;;;;20.87;47.13;100604.06;5037833;28;20220;-54
2023/06/08 11:22:54;;;;;;;7.68;2.58;;;;;;;20.86;47.86;100604.97;5039470;28;20034;-49
2023/06/08 11:25:22;;;;;;;6.30;2.72;;;;;;;20.88;47.64;100603.13;5057498;28;20054;-51
2023/06/08 11:27:57;;;;;;;5.35;2.17;;;;;;;20.91;47.38;100595.16;5037632;28;20567;-55
2023/06/08 11:30:28;;;;;;;7.57;2.75;;;;;;;20.90;46.63;100598.69;5033891;28;20474;-53
2023/06/08 11:32:57;;;;;;;3.95;2.58;;;;;;;21.02;47.65;100594.75;5036826;28;20132;-54
2023/06/08 11:35:24;;;;;;;4.50;2.53;;;;;;;21.10;47.50;100599.75;5036691;28;20053;-49
2023/06/08 11:37:55;;;;;;;5.03;2.88;;;;;;;21.22;47.52;100583.47;5034916;28;20048;-55
2023/06/08 11:40:22;;;;;;;4.90;2.58;;;;;;;21.19;46.79;100586.22;5034593;28;20057;-48
2023/06/08 11:42:50;;;;;;;5.63;2.53;;;;;;;21.27;47.48;100588.53;5039523;28;20050;-43
2023/06/08 11:45:17;;;;;;;4.97;2.65;;;;;;;21.36;47.10;100589.94;5036294;28;20184;-49
2023/06/08 11:47:44;;;;;;;3.67;2.63;;;;;;;21.41;47.20;100577.47;5041557;28;20053;-54
2023/06/08 11:50:14;;;;;;;5.60;3.22;;;;;;;21.40;47.17;100581.00;5035317;28;20055;-52
2023/06/08 11:52:42;;;;;;;6.50;2.67;;;;;;;21.43;47.26;100580.88;5038402;28;20071;-47
2023/06/08 11:55:12;;;;;;;5.07;2.45;;;;;;;21.49;45.70;100583.28;5036821;28;20133;-50